Time;durP1;ratioP1;P1;durP2;ratioP2;P2;SDS_P1;SDS_P2;PMS_P1;PMS_P2;Temp;Humidity;BMP_temperature;BMP_pressure;BME280_temperature;BME280_humidity;BME280_pressure;Samples;Min_cycle;Max_cycle;Signal;HPM_P1;HPM_P2
2021/11/04 00:02:20;;;;;;;;;13.75;11.50;;;;;19.90;42.43;99785.69;5058895;28;57023;-72
2021/11/04 00:04:48;;;;;;;;;16.00;11.00;;;;;19.90;42.46;99785.69;5059322;28;46127;-72
2021/11/04 00:07:13;;;;;;;;;14.25;13.25;;;;;19.90;42.23;99777.75;5059861;28;58564;-72
2021/11/04 00:09:40;;;;;;;;;11.50;11.50;;;;;19.90;42.39;99785.69;5075411;28;53503;-72
2021/11/04 00:12:05;;;;;;;;;16.50;12.75;;;;;19.90;42.37;99776.88;5060468;28;45354;-72
2021/11/04 00:14:33;;;;;;;;;13.50;12.50;;;;;19.89;42.38;99778.66;5060325;28;47051;-72
2021/11/04 00:17:01;;;;;;;;;12.00;12.00;;;;;19.88;42.07;99776.06;5042982;28;45194;-72
2021/11/04 00:19:27;;;;;;;;;13.75;13.25;;;;;19.87;42.28;99774.34;5059576;28;45560;-72
2021/11/04 00:21:52;;;;;;;;;13.25;11.25;;;;;19.85;42.25;99779.72;5058806;28;45352;-72
2021/11/04 00:24:17;;;;;;;;;12.50;12.25;;;;;19.80;42.06;99771.13;5041539;28;66691;-72
2021/11/04 00:26:43;;;;;;;;;10.75;9.50;;;;;19.78;42.49;99767.69;5058480;28;58951;-72
2021/11/04 00:29:08;;;;;;;;;13.50;12.75;;;;;19.76;42.62;99770.41;5042543;28;45857;-71
2021/11/04 00:31:34;;;;;;;;;11.25;11.00;;;;;19.76;42.64;99773.03;5058201;28;63581;-72
2021/11/04 00:33:59;;;;;;;;;12.75;12.75;;;;;19.77;42.61;99776.56;5042088;28;45517;-72
2021/11/04 00:36:25;;;;;;;;;13.25;12.25;;;;;19.73;42.53;99773.19;5041392;28;59638;-72
2021/11/04 00:38:50;;;;;;;;;15.75;11.25;;;;;19.70;42.48;99765.38;5059196;28;45245;-72
2021/11/04 00:41:16;;;;;;;;;12.00;11.25;;;;;19.69;42.59;99776.88;5058128;28;60638;-72
2021/11/04 00:43:42;;;;;;;;;9.25;8.75;;;;;19.68;42.56;99780.47;5042385;28;46548;-72
2021/11/04 00:46:07;;;;;;;;;12.50;10.75;;;;;19.67;42.78;99777.88;5041301;28;45321;-72
2021/11/04 00:48:32;;;;;;;;;13.50;11.50;;;;;19.66;42.51;99782.31;5059593;28;54159;-72
2021/11/04 00:50:58;;;;;;;;;13.25;13.25;;;;;19.64;42.90;99786.84;5059713;28;45191;-72
2021/11/04 00:53:23;;;;;;;;;14.50;12.50;;;;;19.65;42.90;99791.19;5058341;28;56003;-72
2021/11/04 00:55:49;;;;;;;;;12.25;12.25;;;;;19.64;42.51;99793.91;5059639;28;47192;-72
2021/11/04 00:58:15;;;;;;;;;12.75;12.25;;;;;19.63;42.89;99797.47;5075457;28;45438;-72
2021/11/04 01:00:44;;;;;;;;;12.75;11.00;;;;;19.64;42.95;99802.72;5041838;28;45438;-72
2021/11/04 01:03:10;;;;;;;;;13.75;9.75;;;;;19.63;42.80;99789.53;5058346;28;47092;-72
2021/11/04 01:05:35;;;;;;;;;14.00;11.75;;;;;19.63;42.92;99793.03;5058617;28;45197;-72
2021/11/04 01:08:00;;;;;;;;;10.00;8.25;;;;;19.64;42.32;99794.78;5058074;28;56278;-73
2021/11/04 01:10:29;;;;;;;;;12.25;12.00;;;;;19.66;43.27;99797.34;5074769;28;45277;-73
2021/11/04 01:12:54;;;;;;;;;17.00;13.75;;;;;19.67;42.59;99789.34;5057568;28;47022;-73
2021/11/04 01:15:20;;;;;;;;;11.50;10.75;;;;;19.66;42.63;99786.75;5059412;28;48165;-72
2021/11/04 01:17:45;;;;;;;;;15.75;14.25;;;;;19.67;42.29;99788.47;5025069;28;45408;-72
2021/11/04 01:20:11;;;;;;;;;14.75;12.50;;;;;19.68;42.64;99791.06;5041257;28;51952;-73
2021/11/04 01:22:36;;;;;;;;;14.50;14.50;;;;;19.68;42.22;99783.09;5059573;28;45415;-72
2021/11/04 01:25:02;;;;;;;;;12.75;11.75;;;;;19.67;42.49;99786.69;5058215;28;45410;-72
2021/11/04 01:27:39;;;;;;;;;15.75;13.75;;;;;19.67;42.21;99785.84;5025128;28;45330;-73
2021/11/04 01:30:06;;;;;;;;;16.50;13.75;;;;;19.64;42.15;99781.53;5043067;28;45465;-73
2021/11/04 01:32:33;;;;;;;;;12.75;12.75;;;;;19.63;42.09;99789.53;5041412;28;47048;-72
2021/11/04 01:35:02;;;;;;;;;13.75;12.25;;;;;19.61;42.33;99788.72;5041778;28;45355;-72
2021/11/04 01:37:30;;;;;;;;;14.25;14.00;;;;;19.58;42.26;99781.78;5041881;28;45347;-72
2021/11/04 01:39:56;;;;;;;;;15.75;14.00;;;;;19.56;42.15;99785.41;5057541;28;63534;-72
2021/11/04 01:42:21;;;;;;;;;17.00;15.50;;;;;19.54;42.65;99795.19;5024784;28;47033;-73
2021/11/04 01:44:46;;;;;;;;;16.00;15.00;;;;;19.53;42.54;99791.66;5057837;28;45811;-72
2021/11/04 01:47:14;;;;;;;;;16.25;13.00;;;;;19.51;42.70;99788.25;5058298;28;45293;-72
2021/11/04 01:49:41;;;;;;;;;16.50;13.25;;;;;19.52;42.62;99797.03;5058069;28;45497;-73
2021/11/04 01:52:07;;;;;;;;;16.75;15.25;;;;;19.47;42.64;99789.31;5041021;28;47318;-72
2021/11/04 01:54:32;;;;;;;;;13.25;12.25;;;;;19.46;42.84;99796.38;5036488;28;45330;-73
2021/11/04 01:56:58;;;;;;;;;15.00;13.75;;;;;19.45;43.04;99796.44;5045061;28;45327;-73
2021/11/04 01:59:23;;;;;;;;;21.00;17.25;;;;;19.44;42.86;99787.63;5041420;28;53280;-72
2021/11/04 02:01:50;;;;;;;;;13.75;12.75;;;;;19.45;43.39;99788.50;5060826;28;65222;-72
2021/11/04 02:04:31;;;;;;;;;14.00;13.75;;;;;19.45;43.08;99780.56;5044694;28;45257;-73
2021/11/04 02:07:09;;;;;;;;;12.50;12.50;;;;;19.45;42.92;99789.34;5044709;28;45442;-72
2021/11/04 02:09:34;;;;;;;;;14.00;13.00;;;;;19.43;42.87;99795.63;5061307;28;45547;-73
2021/11/04 02:12:04;;;;;;;;;13.50;13.50;;;;;19.43;42.76;99787.69;5077909;28;47185;-72
2021/11/04 02:14:32;;;;;;;;;15.50;14.00;;;;;19.42;42.75;99794.78;5061092;28;45361;-72
2021/11/04 02:16:58;;;;;;;;;14.75;13.25;;;;;19.42;43.11;99799.22;5044557;28;46556;-72
2021/11/04 02:19:47;;;;;;;;;18.50;14.75;;;;;19.42;43.17;99800.06;5044594;28;45316;-73
2021/11/04 02:22:32;;;;;;;;;14.00;12.00;;;;;19.40;42.95;99790.50;5060728;28;45370;-73
2021/11/04 02:25:01;;;;;;;;;15.75;13.75;;;;;19.39;43.09;99794.91;5063616;28;45461;-73
2021/11/04 02:27:26;;;;;;;;;15.25;13.50;;;;;19.39;43.00;99804.66;5062356;28;45346;-72
2021/11/04 02:29:51;;;;;;;;;13.00;11.75;;;;;19.40;42.83;99811.66;5027338;28;48018;-72
2021/11/04 02:32:17;;;;;;;;;13.75;12.00;;;;;19.38;43.00;99810.88;5027102;28;53818;-73
2021/11/04 02:34:42;;;;;;;;;13.75;13.25;;;;;19.37;42.60;99814.41;5043407;28;60267;-72
2021/11/04 02:37:08;;;;;;;;;13.25;13.25;;;;;19.35;42.58;99811.84;5060782;28;45527;-72
2021/11/04 02:39:34;;;;;;;;;14.50;14.50;;;;;19.36;42.78;99812.69;5044162;28;45331;-72
2021/11/04 02:41:59;;;;;;;;;14.50;12.25;;;;;19.36;42.84;99810.91;5043991;28;47263;-72
2021/11/04 02:44:26;;;;;;;;;13.50;12.25;;;;;19.37;42.55;99806.47;5061918;28;45481;-72
2021/11/04 02:46:54;;;;;;;;;15.75;13.75;;;;;19.36;42.74;99802.97;5060982;28;45497;-72
2021/11/04 02:49:19;;;;;;;;;13.50;12.75;;;;;19.37;42.74;99811.75;5044058;28;45959;-72
2021/11/04 02:51:44;;;;;;;;;13.50;12.00;;;;;19.35;42.42;99811.84;5026561;28;57358;-73
2021/11/04 02:54:10;;;;;;;;;15.00;14.00;;;;;19.34;42.57;99814.53;5060303;28;47251;-72
2021/11/04 02:56:52;;;;;;;;;12.00;12.00;;;;;19.32;42.27;99813.75;5060870;28;45389;-72
2021/11/04 02:59:19;;;;;;;;;14.00;12.75;;;;;19.27;42.77;99816.56;5044471;28;45263;-73
2021/11/04 03:01:46;;;;;;;;;13.25;11.25;;;;;19.29;42.89;99824.47;5043707;28;45309;-73
2021/11/04 03:04:14;;;;;;;;;12.25;10.50;;;;;19.27;42.77;99824.50;5043525;28;45434;-73
2021/11/04 03:06:39;;;;;;;;;15.75;14.75;;;;;19.24;42.88;99824.66;5043708;28;45406;-73
2021/11/04 03:09:05;;;;;;;;;14.75;13.00;;;;;19.25;43.06;99825.50;5043202;28;45375;-73
2021/11/04 03:11:30;;;;;;;;;16.00;14.00;;;;;19.24;42.75;99831.72;5060153;28;47300;-73
2021/11/04 03:13:56;;;;;;;;;13.00;12.00;;;;;19.24;43.07;99827.28;5061282;28;45306;-72
2021/11/04 03:16:21;;;;;;;;;15.00;13.00;;;;;19.22;43.03;99823.84;5061602;28;45256;-72
2021/11/04 03:18:47;;;;;;;;;12.25;12.25;;;;;19.23;43.45;99822.94;5043444;28;45189;-72
2021/11/04 03:21:12;;;;;;;;;16.00;12.00;;;;;19.26;43.15;99817.50;5043146;28;46194;-72
2021/11/04 03:23:38;;;;;;;;;17.25;13.25;;;;;19.24;42.91;99827.28;5054990;28;45806;-73
2021/11/04 03:26:03;;;;;;;;;13.00;12.75;;;;;19.22;42.77;99826.50;5053045;28;45229;-72
2021/11/04 03:28:28;;;;;;;;;15.25;14.75;;;;;19.20;42.81;99823.94;5043183;28;45522;-73
2021/11/04 03:30:55;;;;;;;;;12.75;12.25;;;;;19.18;43.16;99825.75;5059954;28;45315;-72
2021/11/04 03:33:21;;;;;;;;;16.75;15.00;;;;;19.19;43.41;99829.25;5043175;28;45267;-72
2021/11/04 03:35:46;;;;;;;;;16.50;13.25;;;;;19.19;43.56;99832.75;5059780;28;45658;-72
2021/11/04 03:38:12;;;;;;;;;16.00;13.00;;;;;19.20;42.94;99826.56;5025843;28;60731;-73
2021/11/04 03:40:37;;;;;;;;;14.00;13.50;;;;;19.22;43.55;99831.78;5059852;28;45430;-73
2021/11/04 03:43:04;;;;;;;;;15.25;13.25;;;;;19.24;42.79;99831.72;5059648;28;45374;-72
2021/11/04 03:45:30;;;;;;;;;14.25;14.25;;;;;19.26;43.19;99836.03;5043104;28;45296;-72
2021/11/04 03:47:55;;;;;;;;;18.00;15.00;;;;;19.28;43.06;99844.75;5042938;28;45465;-73
2021/11/04 03:50:23;;;;;;;;;12.50;11.50;;;;;19.30;43.06;99842.94;5042224;28;69226;-73
2021/11/04 03:52:49;;;;;;;;;15.25;13.50;;;;;19.29;42.82;99838.56;5042729;28;45374;-73
2021/11/04 03:55:15;;;;;;;;;15.75;13.25;;;;;19.27;42.47;99842.16;5042809;28;53159;-72
2021/11/04 03:57:40;;;;;;;;;12.50;11.50;;;;;19.27;43.24;99850.09;5059395;28;45424;-72
2021/11/04 04:00:08;;;;;;;;;14.75;11.25;;;;;19.29;43.13;99848.28;5042626;28;46932;-72
2021/11/04 04:02:33;;;;;;;;;11.00;9.75;;;;;19.28;42.65;99843.88;5042807;28;45471;-72
2021/11/04 04:04:58;;;;;;;;;13.25;11.75;;;;;19.27;42.67;99850.09;5042574;28;48363;-73
2021/11/04 04:07:28;;;;;;;;;13.75;12.75;;;;;19.26;42.80;99853.69;5058562;28;60422;-72
2021/11/04 04:09:53;;;;;;;;;13.00;12.50;;;;;19.24;42.91;99850.25;5042635;28;47091;-72
2021/11/04 04:12:19;;;;;;;;;13.25;12.75;;;;;19.22;42.51;99850.31;5059320;28;45600;-72
2021/11/04 04:14:44;;;;;;;;;9.75;9.75;;;;;19.18;42.90;99844.25;5042686;28;45254;-73
2021/11/04 04:17:09;;;;;;;;;15.00;13.25;;;;;19.16;42.83;99845.25;5058543;28;62090;-73
2021/11/04 04:19:35;;;;;;;;;13.00;11.25;;;;;19.15;42.88;99849.69;5059144;28;49269;-73
2021/11/04 04:22:00;;;;;;;;;14.00;12.75;;;;;19.14;42.90;99855.06;5041533;28;45369;-72
2021/11/04 04:24:26;;;;;;;;;16.00;16.00;;;;;19.11;43.02;99847.22;5060023;28;54680;-72
2021/11/04 04:26:51;;;;;;;;;12.25;10.50;;;;;19.10;42.91;99858.72;5041947;28;58297;-72
2021/11/04 04:29:16;;;;;;;;;13.00;12.50;;;;;19.08;42.88;99861.44;5058674;28;56252;-72
2021/11/04 04:31:42;;;;;;;;;12.50;12.50;;;;;19.08;43.24;99850.00;5041686;28;57376;-72
2021/11/04 04:34:08;;;;;;;;;16.00;13.25;;;;;19.10;43.47;99864.00;5042403;28;45509;-72
2021/11/04 04:36:33;;;;;;;;;13.00;13.00;;;;;19.09;43.38;99860.50;5042097;28;45462;-73
2021/11/04 04:38:59;;;;;;;;;14.50;13.25;;;;;19.11;43.68;99871.03;5041664;28;62132;-72
2021/11/04 04:41:24;;;;;;;;;14.25;13.50;;;;;19.08;43.51;99871.16;5058791;28;45359;-72
2021/11/04 04:43:50;;;;;;;;;14.75;10.50;;;;;19.11;43.26;99881.59;5044996;28;56110;-72
2021/11/04 04:46:17;;;;;;;;;14.25;14.25;;;;;19.12;43.37;99886.84;5055047;28;45718;-72
2021/11/04 04:48:42;;;;;;;;;19.00;12.50;;;;;19.12;43.79;99896.56;5058851;28;46152;-72
2021/11/04 04:51:08;;;;;;;;;13.50;12.75;;;;;19.14;43.71;99892.06;5041291;28;55899;-72
2021/11/04 04:53:33;;;;;;;;;16.25;14.00;;;;;19.14;43.77;99895.59;5027098;28;45302;-72
2021/11/04 04:55:59;;;;;;;;;9.50;9.50;;;;;19.17;44.12;99895.44;5067690;28;53066;-73
2021/11/04 04:58:24;;;;;;;;;11.25;10.75;;;;;19.19;43.88;99898.88;5075500;28;48121;-73
2021/11/04 05:00:50;;;;;;;;;13.25;10.75;;;;;19.19;43.47;99898.88;5059703;28;45336;-73
2021/11/04 05:03:15;;;;;;;;;15.00;13.50;;;;;19.20;43.56;99895.34;5042022;28;45292;-73
2021/11/04 05:05:41;;;;;;;;;13.00;13.00;;;;;19.22;43.94;99887.34;5058164;28;52803;-72
2021/11/04 05:08:06;;;;;;;;;14.00;11.00;;;;;19.24;43.76;99887.28;5058436;28;46130;-72
2021/11/04 05:10:32;;;;;;;;;11.50;11.50;;;;;19.26;43.73;99883.63;5041854;28;45443;-72
2021/11/04 05:12:57;;;;;;;;;12.50;12.50;;;;;19.26;43.77;99885.44;5058710;28;45423;-72
2021/11/04 05:15:22;;;;;;;;;11.25;11.00;;;;;19.28;43.61;99883.56;5058254;28;45595;-72
2021/11/04 05:17:48;;;;;;;;;11.00;10.00;;;;;19.29;43.75;99878.25;5057936;28;63171;-73
2021/11/04 05:20:13;;;;;;;;;11.75;9.50;;;;;19.32;43.84;99893.13;5024948;28;45473;-72
2021/11/04 05:22:38;;;;;;;;;11.25;11.25;;;;;19.37;43.85;99881.44;5041482;28;45355;-72
2021/11/04 05:25:05;;;;;;;;;13.00;12.50;;;;;19.42;43.84;99894.47;5024375;28;59951;-72
2021/11/04 05:27:30;;;;;;;;;15.75;10.00;;;;;19.44;43.69;99884.69;5041761;28;46226;-72
2021/11/04 05:29:56;;;;;;;;;13.00;13.00;;;;;19.43;43.38;99896.19;5052310;28;45278;-72
2021/11/04 05:32:22;;;;;;;;;16.25;12.00;;;;;19.42;43.56;99897.13;5058656;28;45268;-72
2021/11/04 05:34:48;;;;;;;;;12.50;11.50;;;;;19.40;43.83;99906.91;5061818;28;45254;-72
2021/11/04 05:37:13;;;;;;;;;10.25;9.25;;;;;19.38;43.64;99906.97;5044520;28;47737;-72
2021/11/04 05:39:38;;;;;;;;;11.75;11.00;;;;;19.37;43.59;99910.56;5055441;28;48403;-72
2021/11/04 05:42:04;;;;;;;;;12.00;10.50;;;;;19.35;44.06;99915.03;5045275;28;45297;-72
2021/11/04 05:44:30;;;;;;;;;14.25;10.75;;;;;19.35;43.43;99908.88;5044852;28;45502;-72
2021/11/04 05:46:56;;;;;;;;;14.25;13.00;;;;;19.34;44.13;99915.09;5028057;28;47186;-72
2021/11/04 05:49:21;;;;;;;;;11.75;11.75;;;;;19.33;43.63;99911.59;5054708;28;46193;-72
2021/11/04 05:51:47;;;;;;;;;14.25;13.00;;;;;19.33;43.80;99910.72;5044639;28;52068;-72
2021/11/04 05:54:12;;;;;;;;;14.25;11.75;;;;;19.33;44.30;99914.22;5038450;28;45526;-73
2021/11/04 05:56:38;;;;;;;;;12.75;11.50;;;;;19.32;44.28;99907.22;5044308;28;61297;-72
2021/11/04 05:59:03;;;;;;;;;11.75;9.50;;;;;19.31;44.25;99904.63;5061827;28;56034;-72
2021/11/04 06:01:29;;;;;;;;;11.25;11.25;;;;;19.34;44.16;99923.03;5061455;28;45345;-72
2021/11/04 06:03:54;;;;;;;;;12.50;10.75;;;;;19.33;44.00;99919.53;5044566;28;45604;-73
2021/11/04 06:06:20;;;;;;;;;10.25;10.25;;;;;19.30;44.36;99922.31;5061090;28;47111;-73
2021/11/04 06:08:45;;;;;;;;;15.00;14.50;;;;;19.34;43.81;99929.19;5043827;28;55542;-74
2021/11/04 06:11:10;;;;;;;;;10.25;10.25;;;;;19.34;44.34;99915.94;5061532;28;45430;-73
2021/11/04 06:13:36;;;;;;;;;10.25;9.25;;;;;19.33;44.45;99923.94;5044249;28;45202;-72
2021/11/04 06:16:01;;;;;;;;;10.50;9.75;;;;;19.34;44.39;99926.53;5026859;28;66991;-72
2021/11/04 06:18:27;;;;;;;;;12.50;10.75;;;;;19.35;44.30;99924.75;5052866;28;47812;-71
2021/11/04 06:20:55;;;;;;;;;12.00;11.50;;;;;19.37;44.78;99930.84;5051481;28;45279;-70
2021/11/04 06:23:21;;;;;;;;;11.25;11.00;;;;;19.39;44.79;99932.50;5060787;28;45531;-71
2021/11/04 06:25:46;;;;;;;;;12.00;10.50;;;;;19.43;44.75;99931.44;5044111;28;47933;-71
2021/11/04 06:28:11;;;;;;;;;11.50;11.50;;;;;19.44;44.60;99938.47;5077197;28;60469;-72
2021/11/04 06:30:37;;;;;;;;;13.50;10.25;;;;;19.44;44.32;99933.19;5044077;28;49664;-72
2021/11/04 06:33:02;;;;;;;;;12.25;10.50;;;;;19.49;44.66;99944.44;5043912;28;45454;-72
2021/11/04 06:35:28;;;;;;;;;13.00;11.50;;;;;19.52;45.02;99947.88;5076881;28;62975;-71
2021/11/04 06:37:53;;;;;;;;;12.00;9.25;;;;;19.52;44.70;99943.47;5044013;28;45470;-71
2021/11/04 06:40:24;;;;;;;;;9.25;9.25;;;;;19.53;44.70;99946.97;5062319;28;45280;-73
2021/11/04 06:42:50;;;;;;;;;14.75;13.75;;;;;19.54;44.69;99948.69;5060655;28;45272;-73
2021/11/04 06:45:15;;;;;;;;;14.00;13.00;;;;;19.52;44.49;99946.09;5059802;28;45272;-72
2021/11/04 06:47:48;;;;;;;;;11.75;9.75;;;;;19.51;44.34;99952.31;5060602;28;45344;-73
2021/11/04 06:50:15;;;;;;;;;7.25;7.25;;;;;19.47;44.44;99950.75;5061947;28;45330;-72
2021/11/04 06:53:08;;;;;;;;;10.00;10.00;;;;;19.46;44.52;99960.47;5043491;28;45565;-72
2021/11/04 06:55:35;;;;;;;;;11.75;10.75;;;;;19.43;44.21;99960.56;5043468;28;47075;-72
2021/11/04 06:58:03;;;;;;;;;10.50;9.25;;;;;19.41;44.91;99961.56;5060279;28;45249;-72
2021/11/04 07:00:30;;;;;;;;;9.50;8.75;;;;;19.41;44.82;99972.13;5043949;28;45460;-71
2021/11/04 07:02:58;;;;;;;;;9.25;7.25;;;;;19.36;44.71;99967.00;5060270;28;45439;-71
2021/11/04 07:05:24;;;;;;;;;10.00;10.00;;;;;19.36;44.73;99971.44;5059850;28;46728;-71
2021/11/04 07:07:52;;;;;;;;;14.00;8.75;;;;;19.36;45.02;99968.81;5060245;28;45180;-72
2021/11/04 07:10:19;;;;;;;;;7.75;7.50;;;;;19.34;45.05;99971.50;5043515;28;45482;-73
2021/11/04 07:12:47;;;;;;;;;11.75;7.00;;;;;19.33;44.95;99983.03;5060056;28;45386;-73
2021/11/04 07:15:13;;;;;;;;;9.50;8.00;;;;;19.34;45.32;99982.09;5059928;28;46708;-73
2021/11/04 07:17:40;;;;;;;;;8.75;7.25;;;;;19.29;44.99;99981.44;5043376;28;45195;-72
2021/11/04 07:20:05;;;;;;;;;10.50;9.00;;;;;19.33;45.17;99996.25;5043385;28;45341;-72
2021/11/04 07:22:47;;;;;;;;;9.50;7.00;;;;;19.31;45.09;100000.75;5076583;28;45497;-73
2021/11/04 07:25:16;;;;;;;;;9.25;8.00;;;;;19.27;45.31;100004.41;5061364;28;45451;-72
2021/11/04 07:27:54;;;;;;;;;5.50;5.50;;;;;19.29;45.41;100012.31;5042984;28;45429;-73
2021/11/04 07:30:19;;;;;;;;;5.00;5.00;;;;;19.27;45.43;100011.50;5076919;28;45399;-72
2021/11/04 07:32:58;;;;;;;;;8.00;7.50;;;;;19.27;45.04;100016.78;5043409;28;45586;-72
2021/11/04 07:35:31;;;;;;;;;5.50;5.50;;;;;19.26;45.34;100015.91;5043275;28;46829;-73
2021/11/04 07:37:56;;;;;;;;;7.00;6.00;;;;;19.27;45.03;100025.56;5026650;28;45202;-72
2021/11/04 07:40:23;;;;;;;;;6.25;6.25;;;;;19.25;45.33;100023.91;5059586;28;45317;-74
2021/11/04 07:42:49;;;;;;;;;7.50;7.50;;;;;19.27;45.34;100037.94;5043306;28;45312;-72
2021/11/04 07:45:14;;;;;;;;;6.50;5.25;;;;;19.29;45.08;100044.06;5059562;28;46178;-73
2021/11/04 07:47:41;;;;;;;;;5.25;4.75;;;;;19.29;45.33;100047.56;5059704;28;45324;-73
2021/11/04 07:50:07;;;;;;;;;7.50;7.50;;;;;19.30;45.13;100051.94;5043088;28;45396;-73
2021/11/04 07:52:33;;;;;;;;;5.25;5.00;;;;;19.29;45.25;100047.56;5042876;28;45607;-73
2021/11/04 07:55:02;;;;;;;;;6.25;4.75;;;;;19.29;45.33;100054.66;5075799;27;45391;-72
2021/11/04 07:57:28;;;;;;;;;6.00;6.00;;;;;19.31;45.16;100055.44;5042553;28;45265;-72
2021/11/04 07:59:53;;;;;;;;;9.00;6.25;;;;;19.33;45.15;100064.19;5059561;28;45256;-73
2021/11/04 08:02:23;;;;;;;;;5.50;5.25;;;;;19.34;45.22;100057.97;5047275;28;45305;-73
2021/11/04 08:04:48;;;;;;;;;6.00;6.00;;;;;19.31;45.12;100056.31;5057206;28;62949;-73
2021/11/04 08:07:14;;;;;;;;;9.75;7.25;;;;;19.32;45.49;100058.03;5042544;28;45369;-73
2021/11/04 08:09:40;;;;;;;;;10.50;8.00;;;;;19.32;45.05;100067.75;5054513;28;45331;-73
2021/11/04 08:12:06;;;;;;;;;6.25;6.25;;;;;19.32;45.43;100070.41;5051354;28;45593;-72
2021/11/04 08:14:31;;;;;;;;;6.75;6.50;;;;;19.33;45.34;100072.97;5058719;28;47915;-73
2021/11/04 08:16:56;;;;;;;;;6.25;5.25;;;;;19.34;45.30;100064.13;5059521;28;45240;-72
2021/11/04 08:19:22;;;;;;;;;9.75;6.75;;;;;19.34;45.33;100073.84;5042418;28;46004;-73
2021/11/04 08:21:47;;;;;;;;;6.25;6.00;;;;;19.33;45.13;100074.78;5060402;28;45203;-73
2021/11/04 08:24:13;;;;;;;;;7.00;6.25;;;;;19.33;45.27;100080.91;5042382;28;45348;-72
2021/11/04 08:26:38;;;;;;;;;8.50;6.50;;;;;19.34;45.10;100079.13;5059370;28;45181;-73
2021/11/04 08:29:04;;;;;;;;;5.75;5.75;;;;;19.31;45.32;100080.13;5042465;28;45244;-72
2021/11/04 08:31:30;;;;;;;;;5.75;5.75;;;;;19.31;45.07;100090.72;5042050;28;48932;-72
2021/11/04 08:33:55;;;;;;;;;7.25;7.00;;;;;19.29;45.38;100087.25;5042136;28;45427;-72
2021/11/04 08:36:21;;;;;;;;;5.75;5.75;;;;;19.31;45.60;100095.13;5041755;28;56070;-72
2021/11/04 08:38:46;;;;;;;;;7.00;6.00;;;;;19.32;45.48;100097.72;5041908;28;45299;-73
2021/11/04 08:41:12;;;;;;;;;6.25;5.00;;;;;19.34;45.30;100100.31;5059001;28;45442;-73
2021/11/04 08:43:37;;;;;;;;;8.00;6.75;;;;;19.34;45.34;100103.81;5041830;28;46919;-72
2021/11/04 08:46:03;;;;;;;;;8.00;5.50;;;;;19.35;45.08;100108.19;5045441;28;45375;-72
2021/11/04 08:48:28;;;;;;;;;6.00;6.00;;;;;19.35;45.42;100109.97;5057619;28;45601;-72
2021/11/04 08:50:54;;;;;;;;;10.00;8.00;;;;;19.36;45.94;100119.63;5058663;28;45584;-73
2021/11/04 08:53:19;;;;;;;;;6.25;6.25;;;;;19.36;45.27;100119.63;5058687;28;45810;-73
2021/11/04 08:55:45;;;;;;;;;1.50;1.25;;;;;19.36;45.61;100120.50;5060358;28;45303;-72
2021/11/04 08:58:12;;;;;;;;;7.50;7.25;;;;;19.35;44.61;100126.69;5041929;28;45237;-73
2021/11/04 09:00:37;;;;;;;;;5.00;5.00;;;;;19.33;44.70;100117.09;5041875;28;45264;-72
2021/11/04 09:03:03;;;;;;;;;4.25;4.00;;;;;19.35;45.17;100123.19;5041613;28;46136;-73
2021/11/04 09:05:28;;;;;;;;;5.50;4.75;;;;;19.37;44.94;100129.28;5058743;28;45231;-73
2021/11/04 09:07:54;;;;;;;;;5.25;4.50;;;;;19.38;44.73;100123.09;5061156;28;45265;-73
2021/11/04 09:10:21;;;;;;;;;4.00;3.50;;;;;19.39;45.09;100136.28;5062248;28;45193;-72
2021/11/04 09:12:47;;;;;;;;;10.50;8.25;;;;;19.42;44.50;100127.34;5061957;28;46963;-72
2021/11/04 09:15:12;;;;;;;;;3.75;3.75;;;;;19.42;44.99;100137.94;5062090;28;45467;-72
2021/11/04 09:17:38;;;;;;;;;5.50;5.50;;;;;19.43;44.77;100135.22;5045448;28;45336;-72
2021/11/04 09:20:04;;;;;;;;;7.00;5.00;;;;;19.46;45.02;100140.44;5045421;28;45431;-73
2021/11/04 09:22:29;;;;;;;;;5.75;5.25;;;;;19.50;44.58;100149.09;5045010;28;45317;-72
2021/11/04 09:24:56;;;;;;;;;6.25;5.00;;;;;19.52;44.68;100149.91;5045323;28;45414;-73
2021/11/04 09:27:21;;;;;;;;;6.00;5.00;;;;;19.53;44.92;100150.75;5062007;28;45194;-72
2021/11/04 09:29:48;;;;;;;;;4.00;4.00;;;;;19.55;44.85;100155.09;5061870;28;45443;-73
2021/11/04 09:32:13;;;;;;;;;5.50;5.50;;;;;19.55;44.79;100154.25;5063002;28;46075;-72
2021/11/04 09:34:39;;;;;;;;;3.50;3.50;;;;;19.55;44.44;100163.03;5061854;28;45264;-73
2021/11/04 09:37:08;;;;;;;;;4.25;3.75;;;;;19.55;44.94;100162.19;5063010;28;45199;-72
2021/11/04 09:39:34;;;;;;;;;1.50;1.50;;;;;19.56;44.76;100162.16;5078729;28;45382;-73
2021/11/04 09:41:59;;;;;;;;;5.00;3.50;;;;;19.55;44.61;100162.19;5061609;28;45521;-73
2021/11/04 09:44:25;;;;;;;;;4.25;4.25;;;;;19.54;45.06;100155.13;5061497;28;45420;-72
2021/11/04 09:46:50;;;;;;;;;4.00;3.75;;;;;19.56;44.79;100158.63;5078418;28;45347;-73
2021/11/04 09:49:15;;;;;;;;;3.25;3.25;;;;;19.57;44.92;100169.16;5044765;28;48342;-72
2021/11/04 09:51:41;;;;;;;;;4.50;4.50;;;;;19.60;44.70;100170.84;5044559;28;45749;-73
2021/11/04 09:54:06;;;;;;;;;4.00;4.00;;;;;19.58;44.53;100165.59;5027324;28;45599;-73
2021/11/04 09:56:33;;;;;;;;;4.50;4.50;;;;;19.62;44.49;100166.34;5056043;28;55120;-72
2021/11/04 09:58:59;;;;;;;;;4.50;4.50;;;;;19.61;44.91;100175.19;5061460;28;45451;-72
2021/11/04 10:01:28;;;;;;;;;4.00;4.00;;;;;19.61;44.25;100176.06;5044376;28;47194;-72
2021/11/04 10:03:57;;;;;;;;;5.00;5.00;;;;;19.63;44.07;100182.16;5045086;28;46091;-73
2021/11/04 10:06:26;;;;;;;;;3.50;3.25;;;;;19.62;44.34;100180.44;5062591;28;45250;-73
2021/11/04 10:08:53;;;;;;;;;4.00;3.00;;;;;19.61;44.10;100183.16;5044526;28;45401;-73
2021/11/04 10:11:19;;;;;;;;;3.00;3.00;;;;;19.61;44.53;100181.34;5044624;28;45454;-73
2021/11/04 10:13:46;;;;;;;;;5.00;3.00;;;;;19.62;44.27;100193.66;5048627;28;45446;-73
2021/11/04 10:16:11;;;;;;;;;4.25;3.00;;;;;19.62;44.24;100193.66;5043214;28;45337;-73
2021/11/04 10:18:51;;;;;;;;;4.50;4.25;;;;;19.65;44.07;100196.22;5047446;28;45646;-72
2021/11/04 10:21:22;;;;;;;;;4.50;3.50;;;;;19.69;44.18;100187.25;5045298;28;45351;-72
2021/11/04 10:23:48;;;;;;;;;3.75;3.00;;;;;19.72;44.22;100192.44;5044382;28;45355;-73
2021/11/04 10:26:22;;;;;;;;;2.25;2.25;;;;;19.76;43.80;100188.75;5061304;28;45296;-73
2021/11/04 10:28:49;;;;;;;;;2.75;2.50;;;;;19.79;44.22;100189.53;5045038;28;45637;-73
2021/11/04 10:31:18;;;;;;;;;3.50;3.25;;;;;19.87;43.71;100200.72;5044059;28;47138;-73
2021/11/04 10:33:45;;;;;;;;;3.00;3.00;;;;;19.89;43.87;100190.91;5043876;28;45466;-72
2021/11/04 10:36:18;;;;;;;;;3.00;3.00;;;;;19.93;43.59;100196.06;5044407;28;45419;-73
2021/11/04 10:38:48;;;;;;;;;4.50;3.00;;;;;19.96;43.30;100198.56;5044459;28;45431;-73
2021/11/04 10:41:25;;;;;;;;;5.25;3.00;;;;;19.98;43.36;100191.47;5044208;28;46006;-72
2021/11/04 10:43:52;;;;;;;;;4.00;2.75;;;;;20.02;43.46;100202.78;5060837;28;45216;-73
2021/11/04 10:46:18;;;;;;;;;5.50;4.75;;;;;20.03;43.27;100193.91;5060608;28;45391;-73
2021/11/04 10:48:48;;;;;;;;;4.00;3.00;;;;;20.04;43.66;100199.16;5060669;28;45355;-73
2021/11/04 10:51:20;;;;;;;;;8.50;5.00;;;;;20.03;43.11;100200.06;5062052;28;47651;-72
2021/11/04 10:54:07;;;;;;;;;3.75;3.75;;;;;20.02;43.47;100206.28;5065113;28;45454;-72
2021/11/04 10:56:45;;;;;;;;;3.00;3.00;;;;;20.01;43.45;100207.22;5077601;28;45485;-72
2021/11/04 10:59:16;;;;;;;;;4.75;3.25;;;;;20.00;43.28;100213.44;5060430;28;45796;-72
2021/11/04 11:01:41;;;;;;;;;3.25;3.25;;;;;20.01;43.22;100214.31;5061993;28;46718;-72
2021/11/04 11:04:15;;;;;;;;;5.25;3.75;;;;;20.01;43.84;100207.22;5061491;28;45266;-73
2021/11/04 11:06:44;;;;;;;;;4.00;4.00;;;;;20.02;43.05;100208.09;5062748;28;45292;-72
2021/11/04 11:09:20;;;;;;;;;3.50;3.50;;;;;20.00;43.14;100213.44;5077327;28;45736;-73
2021/11/04 11:11:47;;;;;;;;;2.25;2.00;;;;;20.00;42.65;100204.63;5060426;28;47591;-73
2021/11/04 11:14:19;;;;;;;;;2.00;2.00;;;;;20.02;42.57;100223.97;5061347;28;45503;-72
2021/11/04 11:19:43;;;;;;;;;2.25;2.25;;;;;19.97;42.63;100218.84;5018177;28;45553;-72
2021/11/04 11:22:09;;;;;;;;;2.25;2.25;;;;;20.03;42.64;100226.56;5053391;28;46985;-72
2021/11/04 11:24:38;;;;;;;;;3.50;3.50;;;;;20.07;42.77;100231.72;5043673;28;45464;-72